CheckWX is a tool to help pilots better visualize weather data.  It is not intended as a substitute for an official pre-flight weather briefing.

05:51:37 UTC

DABT METAR
Batna Airport
Batna, Algeria
Current

52 mins ago

DABT 240500Z 09005KT 9999 SCT026 03/M02 Q1023
Observed
Feb-24 @ 05:00 UTC
Wind
  • 090° at 5 KTS
Visibility
10,000+ meters
Flight Rules
VFR
Cloud Levels
  • Scattered at 2,600' AGL
Temperature
C / 37°F
Dewpoint
-2°C / 28°F
Humidity
70%
Altimeter
30.21" Hg
Pressure
1022.92 hPa
Previous

2 hours ago

DABT 240400Z 30002KT 9999 SCT026 03/M02 Q1023
Observed
Feb-24 @ 04:00 UTC
Wind
  • 300° at 2 KTS
Visibility
10,000+ meters
Flight Rules
VFR
Cloud Levels
  • Scattered at 2,600' AGL
Temperature
C / 37°F
Dewpoint
-2°C / 28°F
Humidity
70%
Altimeter
30.21" Hg
Pressure
1022.92 hPa
Previous

3 hours ago

DABT 240300Z 05008KT 9999 SCT026 03/M02 Q1022
Observed
Feb-24 @ 03:00 UTC
Wind
  • 050° at 8 KTS
Visibility
10,000+ meters
Flight Rules
VFR
Cloud Levels
  • Scattered at 2,600' AGL
Temperature
C / 37°F
Dewpoint
-2°C / 28°F
Humidity
70%
Altimeter
30.18" Hg
Pressure
1021.92 hPa